| time (UTC) | temp F | wind direction | speed MPH | gust MPH | rain 1hr in | rain 24hr in | rain mn in | humidity % | barometer mb |
| 20260509162425 | 62 | 121 | 1.0 | 1.0 | 0.00 | 0.00 | 0.00 | 58 | 1013.2 |
| 20260509161921 | 61 | 125 | 2.0 | 2.0 | 0.00 | 0.00 | 0.00 | 58 | 1012.9 |
| 20260509161417 | 61 | 133 | 0.0 | 0.0 | 0.00 | 0.00 | 0.00 | 59 | 1013.2 |
| 20260509160913 | 61 | 194 | 3.0 | 3.0 | 0.00 | 0.00 | 0.00 | 59 | 1013.1 |
| 20260509160408 | 61 | 162 | 4.0 | 5.0 | 0.00 | 0.00 | 0.00 | 59 | 1013.2 |
| 20260509155903 | 62 | 121 | 0.0 | 0.0 | 0.00 | 0.00 | 0.00 | 57 | 1013.1 |
| 20260509155401 | 61 | 133 | 0.0 | 0.0 | 0.00 | 0.00 | 0.00 | 58 | 1012.8 |
| 20260509154857 | 60 | 110 | 1.0 | 1.0 | 0.00 | 0.00 | 0.00 | 59 | 1013.0 |
| 20260509154353 | 61 | 146 | 1.0 | 2.0 | 0.00 | 0.00 | 0.00 | 59 | 1012.9 |
| 20260509153850 | 60 | 125 | 0.0 | 0.0 | 0.00 | 0.00 | 0.00 | 60 | 1012.9 |
| 20260509153347 | 60 | 126 | 1.0 | 2.0 | 0.00 | 0.00 | 0.00 | 61 | 1012.8 |
| 20260509152844 | 59 | 115 | 0.0 | 0.0 | 0.00 | 0.00 | 0.00 | 60 | 1012.8 |
| 20260509152340 | 59 | 134 | 0.0 | 0.0 | 0.00 | 0.00 | 0.00 | 61 | 1012.6 |
| 20260509151837 | 59 | 147 | 1.0 | 2.0 | 0.00 | 0.00 | 0.00 | 61 | 1012.7 |
| 20260509151333 | 58 | 170 | 3.0 | 3.0 | 0.00 | 0.00 | 0.00 | 62 | 1012.8 |
| 20260509150832 | 58 | 148 | 1.0 | 1.0 | 0.00 | 0.00 | 0.00 | 61 | 1012.7 |
| 20260509150329 | 58 | 165 | 2.0 | 2.0 | 0.00 | 0.00 | 0.00 | 61 | 1012.4 |
| 20260509145826 | 58 | 134 | 1.0 | 2.0 | 0.00 | 0.00 | 0.00 | 61 | 1012.9 |
| 20260509145321 | 58 | 135 | 0.0 | 1.0 | 0.00 | 0.00 | 0.00 | 61 | 1012.6 |
| 20260509144818 | 57 | 135 | 0.0 | 1.0 | 0.00 | 0.00 | 0.00 | 62 | 1012.4 |
| 20260509144315 | 58 | 94 | 3.0 | 3.0 | 0.00 | 0.00 | 0.00 | 62 | 1012.5 |
| 20260509143812 | 58 | 122 | 0.0 | 0.0 | 0.00 | 0.00 | 0.00 | 62 | 1012.5 |
| 20260509143309 | 57 | 68 | 3.0 | 3.0 | 0.00 | 0.00 | 0.00 | 61 | 1012.6 |
| 20260509142805 | 57 | 83 | 4.0 | 5.0 | 0.00 | 0.00 | 0.00 | 63 | 1012.4 |
| 20260509142302 | 56 | 105 | 0.0 | 0.0 | 0.00 | 0.00 | 0.00 | 65 | 1012.5 |
| 20260509141757 | 56 | 91 | 1.0 | 2.0 | 0.00 | 0.00 | 0.00 | 64 | 1012.5 |
| 20260509141254 | 56 | 102 | 3.0 | 3.0 | 0.00 | 0.00 | 0.00 | 65 | 1012.5 |
| 20260509140751 | 57 | 130 | 0.0 | 1.0 | 0.00 | 0.00 | 0.00 | 65 | 1012.2 |
| 20260509140248 | 57 | 115 | 0.0 | 0.0 | 0.00 | 0.00 | 0.00 | 64 | 1012.3 |
| 20260509135746 | 56 | 119 | 0.0 | 0.0 | 0.00 | 0.00 | 0.00 | 66 | 1012.3 |
| 20260509135243 | 55 | 128 | 0.0 | 0.0 | 0.00 | 0.00 | 0.00 | 67 | 1012.2 |
| 20260509134740 | 55 | 181 | 2.0 | 2.0 | 0.00 | 0.00 | 0.00 | 68 | 1012.0 |
| 20260509134238 | 55 | 165 | 2.0 | 2.0 | 0.00 | 0.00 | 0.00 | 68 | 1011.8 |
| 20260509133735 | 54 | 151 | 1.0 | 2.0 | 0.00 | 0.00 | 0.00 | 67 | 1011.9 |
| 20260509133231 | 54 | 156 | 1.0 | 1.0 | 0.00 | 0.00 | 0.00 | 67 | 1011.9 |
| 20260509132730 | 54 | 188 | 3.0 | 3.0 | 0.00 | 0.00 | 0.00 | 68 | 1011.9 |
| 20260509132228 | 54 | 141 | 1.0 | 1.0 | 0.00 | 0.00 | 0.00 | 66 | 1011.8 |
| 20260509131724 | 53 | 107 | 0.0 | 0.0 | 0.00 | 0.00 | 0.00 | 66 | 1011.7 |
| 20260509131221 | 53 | 98 | 0.0 | 1.0 | 0.00 | 0.00 | 0.00 | 67 | 1011.7 |
| 20260509130717 | 53 | 69 | 3.0 | 3.0 | 0.00 | 0.00 | 0.00 | 67 | 1011.7 |
| 20260509130213 | 53 | 59 | 3.0 | 3.0 | 0.00 | 0.00 | 0.00 | 67 | 1011.5 |
| 20260509125710 | 52 | 113 | 0.0 | 0.0 | 0.00 | 0.00 | 0.00 | 67 | 1011.6 |
| 20260509125207 | 52 | 112 | 0.0 | 0.0 | 0.00 | 0.00 | 0.00 | 69 | 1011.3 |
| 20260509124703 | 52 | 144 | 0.0 | 0.0 | 0.00 | 0.00 | 0.00 | 69 | 1011.4 |
| 20260509124200 | 52 | 108 | 0.0 | 0.0 | 0.00 | 0.00 | 0.00 | 69 | 1011.2 |
| 20260509123658 | 52 | 152 | 1.0 | 2.0 | 0.00 | 0.00 | 0.00 | 68 | 1011.0 |
| 20260509123155 | 52 | 96 | 0.0 | 1.0 | 0.00 | 0.00 | 0.00 | 68 | 1011.1 |
| 20260509122650 | 52 | 281 | 3.0 | 3.0 | 0.00 | 0.00 | 0.00 | 67 | 1011.2 |
| 20260509122147 | 52 | 86 | 1.0 | 1.0 | 0.00 | 0.00 | 0.00 | 68 | 1011.1 |
| 20260509121644 | 52 | 112 | 0.0 | 0.0 | 0.00 | 0.00 | 0.00 | 68 | 1011.0 |
| 20260509121142 | 52 | 94 | 2.0 | 2.0 | 0.00 | 0.00 | 0.00 | 67 | 1011.1 |
| 20260509120640 | 52 | 107 | 1.0 | 2.0 | 0.00 | 0.00 | 0.00 | 67 | 1010.8 |
| 20260509120138 | 52 | 6 | 2.0 | 2.0 | 0.00 | 0.00 | 0.00 | 67 | 1010.8 |
| 20260509115635 | 51 | 19 | 2.0 | 2.0 | 0.00 | 0.00 | 0.00 | 68 | 1010.6 |
| 20260509115132 | 52 | 117 | 0.0 | 0.0 | 0.00 | 0.00 | 0.00 | 68 | 1010.7 |
| 20260509114630 | 52 | 319 | 0.0 | 0.0 | 0.00 | 0.00 | 0.00 | 68 | 1010.7 |
| 20260509114129 | 52 | 314 | 5.0 | 6.0 | 0.00 | 0.00 | 0.00 | 68 | 1010.8 |
| 20260509113627 | 52 | 305 | 6.0 | 7.0 | 0.00 | 0.00 | 0.00 | 67 | 1010.5 |
| 20260509113124 | 51 | 277 | 3.0 | 3.0 | 0.00 | 0.00 | 0.00 | 67 | 1010.7 |
| 20260509112620 | 51 | 278 | 5.0 | 6.0 | 0.00 | 0.00 | 0.00 | 69 | 1010.3 |
| 20260509112118 | 51 | 236 | 3.0 | 3.0 | 0.00 | 0.00 | 0.00 | 68 | 1010.5 |
| 20260509111615 | 51 | 173 | 1.0 | 1.0 | 0.00 | 0.00 | 0.00 | 68 | 1010.4 |
| 20260509111111 | 51 | 230 | 4.0 | 5.0 | 0.00 | 0.00 | 0.00 | 68 | 1010.3 |
| 20260509110609 | 52 | 118 | 1.0 | 1.0 | 0.00 | 0.00 | 0.00 | 68 | 1010.2 |
| 20260509110106 | 51 | 128 | 0.0 | 0.0 | 0.00 | 0.00 | 0.00 | 68 | 1010.3 |
| 20260509105604 | 51 | 95 | 1.0 | 1.0 | 0.00 | 0.00 | 0.00 | 67 | 1010.2 |
| 20260509105101 | 52 | 116 | 2.0 | 2.0 | 0.00 | 0.00 | 0.00 | 66 | 1010.1 |
| 20260509104558 | 52 | 57 | 0.0 | 0.0 | 0.00 | 0.00 | 0.00 | 66 | 1010.1 |
| 20260509104055 | 52 | 37 | 5.0 | 8.0 | 0.00 | 0.00 | 0.00 | 66 | 1010.1 |
| 20260509103553 | 51 | 13 | 5.0 | 7.0 | 0.00 | 0.00 | 0.00 | 66 | 1010.1 |
| 20260509103051 | 51 | 69 | 4.0 | 5.0 | 0.00 | 0.00 | 0.00 | 66 | 1009.9 |
| 20260509102547 | 51 | 59 | 1.0 | 2.0 | 0.00 | 0.00 | 0.00 | 67 | 1009.9 |
| 20260509102044 | 51 | 101 | 2.0 | 2.0 | 0.00 | 0.00 | 0.00 | 67 | 1009.6 |
| 20260509101540 | 52 | 121 | 0.0 | 0.0 | 0.00 | 0.00 | 0.00 | 66 | 1009.4 |
| 20260509101038 | 52 | 108 | 0.0 | 0.0 | 0.00 | 0.00 | 0.00 | 66 | 1009.5 |
| 20260509100535 | 52 | 86 | 1.0 | 2.0 | 0.00 | 0.00 | 0.00 | 65 | 1009.9 |
| 20260509100032 | 52 | 110 | 1.0 | 2.0 | 0.00 | 0.00 | 0.00 | 65 | 1009.6 |
| 20260509095529 | 52 | 122 | 0.0 | 0.0 | 0.00 | 0.00 | 0.00 | 66 | 1009.4 |
| 20260509095026 | 52 | 113 | 0.0 | 0.0 | 0.00 | 0.00 | 0.00 | 65 | 1009.5 |
| 20260509094522 | 52 | 89 | 1.0 | 1.0 | 0.00 | 0.00 | 0.00 | 65 | 1009.2 |
| 20260509094020 | 52 | 102 | 1.0 | 2.0 | 0.00 | 0.00 | 0.00 | 65 | 1009.3 |
| 20260509093518 | 53 | 117 | 0.0 | 0.0 | 0.00 | 0.00 | 0.00 | 65 | 1009.3 |
| 20260509093015 | 53 | 43 | 2.0 | 2.0 | 0.00 | 0.00 | 0.00 | 64 | 1009.1 |
| 20260509092513 | 53 | 116 | 1.0 | 1.0 | 0.00 | 0.00 | 0.00 | 64 | 1009.0 |
| 20260509092011 | 54 | 93 | 1.0 | 1.0 | 0.00 | 0.00 | 0.00 | 63 | 1009.2 |
| 20260509091508 | 53 | 83 | 0.0 | 1.0 | 0.00 | 0.00 | 0.00 | 63 | 1009.3 |
| 20260509091004 | 53 | 216 | 3.0 | 3.0 | 0.00 | 0.00 | 0.00 | 64 | 1009.0 |
| 20260509090502 | 53 | 69 | 0.0 | 0.0 | 0.00 | 0.00 | 0.00 | 64 | 1009.0 |
| 20260509090000 | 53 | 66 | 0.0 | 0.0 | 0.00 | 0.00 | 0.00 | 64 | 1009.0 |
| 20260509085456 | 53 | 39 | 3.0 | 3.0 | 0.00 | 0.00 | 0.00 | 64 | 1008.8 |
| 20260509084952 | 53 | 60 | 2.0 | 2.0 | 0.00 | 0.00 | 0.00 | 63 | 1008.9 |
| 20260509084449 | 53 | 101 | 0.0 | 0.0 | 0.00 | 0.00 | 0.00 | 63 | 1008.6 |
| 20260509083947 | 53 | 98 | 0.0 | 0.0 | 0.00 | 0.00 | 0.00 | 64 | 1008.8 |
| 20260509083444 | 53 | 98 | 0.0 | 0.0 | 0.00 | 0.00 | 0.00 | 63 | 1008.9 |
| 20260509082941 | 53 | 98 | 0.0 | 0.0 | 0.00 | 0.00 | 0.00 | 63 | 1008.8 |
| 20260509082438 | 54 | 97 | 0.0 | 0.0 | 0.00 | 0.00 | 0.00 | 63 | 1008.7 |
| 20260509081935 | 54 | 96 | 0.0 | 0.0 | 0.00 | 0.00 | 0.00 | 62 | 1008.6 |
| 20260509081432 | 55 | 94 | 0.0 | 0.0 | 0.00 | 0.00 | 0.00 | 61 | 1008.8 |
| 20260509080929 | 55 | 93 | 0.0 | 0.0 | 0.00 | 0.00 | 0.00 | 60 | 1008.4 |
| 20260509080427 | 56 | 88 | 0.0 | 0.0 | 0.00 | 0.00 | 0.00 | 60 | 1008.7 |
| 20260509075925 | 57 | 115 | 0.0 | 0.0 | 0.00 | 0.00 | 0.00 | 59 | 1008.7 |
| 20260509075422 | 58 | 60 | 2.0 | 2.0 | 0.00 | 0.00 | 0.00 | 58 | 1008.4 |
| 20260509074920 | 57 | 48 | 3.0 | 3.0 | 0.00 | 0.00 | 0.00 | 58 | 1008.7 |
| 20260509074417 | 57 | 37 | 5.0 | 6.0 | 0.00 | 0.00 | 0.00 | 58 | 1008.6 |
| 20260509073913 | 56 | 86 | 1.0 | 1.0 | 0.00 | 0.00 | 0.00 | 59 | 1008.7 |
| 20260509073410 | 56 | 104 | 0.0 | 0.0 | 0.00 | 0.00 | 0.00 | 59 | 1008.7 |
| 20260509072906 | 57 | 6 | 2.0 | 2.0 | 0.00 | 0.00 | 0.00 | 58 | 1008.7 |
| 20260509072403 | 57 | 296 | 4.0 | 5.0 | 0.00 | 0.00 | 0.00 | 58 | 1008.4 |
| 20260509071859 | 57 | 89 | 2.0 | 3.0 | 0.00 | 0.00 | 0.00 | 57 | 1008.6 |
| 20260509071356 | 58 | 117 | 0.0 | 0.0 | 0.00 | 0.00 | 0.00 | 57 | 1008.3 |
| 20260509070854 | 59 | 99 | 1.0 | 1.0 | 0.00 | 0.00 | 0.00 | 56 | 1008.4 |
| 20260509070350 | 59 | 45 | 3.0 | 3.0 | 0.00 | 0.00 | 0.00 | 56 | 1008.4 |
| 20260509065846 | 58 | 312 | 2.0 | 2.0 | 0.00 | 0.00 | 0.00 | 56 | 1008.3 |
| 20260509065343 | 58 | 340 | 4.0 | 5.0 | 0.00 | 0.00 | 0.00 | 56 | 1008.1 |
| 20260509064839 | 59 | 322 | 3.0 | 3.0 | 0.00 | 0.00 | 0.00 | 56 | 1008.2 |
| 20260509064337 | 59 | 328 | 5.0 | 7.0 | 0.00 | 0.00 | 0.00 | 55 | 1008.2 |
| 20260509063834 | 59 | 0 | 7.0 | 8.0 | 0.00 | 0.00 | 0.00 | 55 | 1008.1 |
| 20260509063330 | 59 | 258 | 5.0 | 7.0 | 0.00 | 0.00 | 0.00 | 54 | 1008.2 |
| 20260509062827 | 58 | 281 | 8.0 | 10.0 | 0.00 | 0.00 | 0.00 | 54 | 1008.0 |
| 20260509062324 | 58 | 303 | 7.0 | 8.0 | 0.00 | 0.00 | 0.00 | 54 | 1008.0 |
| 20260509061822 | 58 | 279 | 5.0 | 6.0 | 0.00 | 0.00 | 0.00 | 54 | 1007.8 |
| 20260509061320 | 59 | 313 | 4.0 | 6.0 | 0.00 | 0.00 | 0.00 | 53 | 1007.9 |
| 20260509060816 | 59 | 308 | 5.0 | 6.0 | 0.00 | 0.00 | 0.00 | 51 | 1007.7 |
| 20260509060313 | 60 | 282 | 7.0 | 8.0 | 0.00 | 0.00 | 0.00 | 50 | 1007.6 |
| 20260509055808 | 60 | 132 | 1.0 | 1.0 | 0.00 | 0.00 | 0.00 | 50 | 1007.7 |
| 20260509055306 | 61 | 45 | 3.0 | 5.0 | 0.00 | 0.00 | 0.00 | 49 | 1007.2 |
| 20260509054801 | 61 | 29 | 5.0 | 6.0 | 0.00 | 0.00 | 0.00 | 48 | 1007.2 |
| 20260509054258 | 61 | 327 | 1.0 | 3.0 | 0.00 | 0.00 | 0.00 | 52 | 1007.2 |
| 20260509053757 | 62 | 285 | 8.0 | 10.0 | 0.00 | 0.00 | 0.00 | 58 | 1006.9 |
| 20260509053253 | 62 | 294 | 6.0 | 7.0 | 0.00 | 0.00 | 0.00 | 57 | 1007.2 |
| 20260509052751 | 62 | 197 | 7.0 | 10.0 | 0.00 | 0.00 | 0.00 | 55 | 1007.1 |
| 20260509052249 | 62 | 286 | 14.0 | 16.0 | 0.00 | 0.00 | 0.00 | 56 | 1007.1 |
| 20260509051746 | 63 | 253 | 9.0 | 11.0 | 0.00 | 0.00 | 0.00 | 55 | 1007.1 |
| 20260509051244 | 63 | 275 | 13.0 | 17.0 | 0.00 | 0.00 | 0.00 | 54 | 1007.2 |
| 20260509050740 | 64 | 251 | 11.0 | 14.0 | 0.00 | 0.00 | 0.00 | 53 | 1007.0 |
| 20260509050237 | 64 | 259 | 14.0 | 18.0 | 0.00 | 0.00 | 0.00 | 52 | 1006.9 |
| 20260509045734 | 64 | 297 | 15.0 | 17.0 | 0.00 | 0.00 | 0.00 | 52 | 1007.0 |
| 20260509045231 | 65 | 263 | 11.0 | 13.0 | 0.00 | 0.00 | 0.00 | 51 | 1007.2 |
| 20260509044729 | 64 | 302 | 10.0 | 11.0 | 0.00 | 0.00 | 0.00 | 49 | 1007.0 |
| 20260509044226 | 64 | 337 | 8.0 | 9.0 | 0.00 | 0.00 | 0.00 | 42 | 1007.0 |
| 20260509043722 | 64 | 309 | 9.0 | 10.0 | 0.00 | 0.00 | 0.00 | 36 | 1006.7 |
| 20260509043218 | 64 | 29 | 3.0 | 6.0 | 0.00 | 0.00 | 0.00 | 36 | 1006.9 |
| 20260509042715 | 65 | 334 | 7.0 | 9.0 | 0.00 | 0.00 | 0.00 | 35 | 1006.9 |
| 20260509042211 | 64 | 345 | 9.0 | 13.0 | 0.00 | 0.00 | 0.00 | 36 | 1006.8 |
| 20260509041708 | 64 | 317 | 8.0 | 10.0 | 0.00 | 0.00 | 0.00 | 36 | 1006.7 |
| 20260509041205 | 65 | 313 | 7.0 | 9.0 | 0.00 | 0.00 | 0.00 | 35 | 1006.6 |
| 20260509040703 | 65 | 183 | 1.0 | 2.0 | 0.00 | 0.00 | 0.00 | 35 | 1006.4 |
| 20260509040200 | 66 | 303 | 4.0 | 5.0 | 0.00 | 0.00 | 0.00 | 34 | 1006.4 |
| 20260509035656 | 66 | 316 | 6.0 | 9.0 | 0.00 | 0.00 | 0.00 | 34 | 1006.3 |
| 20260509035153 | 66 | 315 | 6.0 | 8.0 | 0.00 | 0.00 | 0.00 | 35 | 1006.0 |
| 20260509034651 | 65 | 351 | 1.0 | 1.0 | 0.00 | 0.00 | 0.00 | 35 | 1006.0 |
| 20260509034148 | 65 | 255 | 4.0 | 5.0 | 0.00 | 0.00 | 0.00 | 35 | 1006.3 |
| 20260509033645 | 63 | 243 | 6.0 | 7.0 | 0.00 | 0.00 | 0.00 | 36 | 1006.0 |
| 20260509033142 | 63 | 253 | 9.0 | 10.0 | 0.00 | 0.00 | 0.00 | 36 | 1005.9 |
| 20260509032639 | 63 | 290 | 3.0 | 3.0 | 0.00 | 0.00 | 0.00 | 35 | 1005.7 |
| 20260509032136 | 63 | 112 | 2.0 | 3.0 | 0.00 | 0.00 | 0.00 | 36 | 1005.7 |
| 20260509031634 | 63 | 147 | 1.0 | 2.0 | 0.00 | 0.00 | 0.00 | 36 | 1005.6 |
| 20260509031131 | 64 | 119 | 0.0 | 0.0 | 0.00 | 0.00 | 0.00 | 36 | 1005.3 |
| 20260509030629 | 64 | 120 | 0.0 | 0.0 | 0.00 | 0.00 | 0.00 | 36 | 1005.2 |
| 20260509030126 | 65 | 11 | 5.0 | 6.0 | 0.00 | 0.00 | 0.00 | 34 | 1005.3 |
| 20260509025622 | 66 | 28 | 4.0 | 6.0 | 0.00 | 0.00 | 0.00 | 34 | 1005.1 |
| 20260509025118 | 66 | 119 | 0.0 | 1.0 | 0.00 | 0.00 | 0.00 | 34 | 1004.9 |
| 20260509024613 | 67 | 33 | 4.0 | 5.0 | 0.00 | 0.00 | 0.00 | 33 | 1004.6 |
| 20260509024109 | 68 | 20 | 3.0 | 3.0 | 0.00 | 0.00 | 0.00 | 32 | 1004.6 |
| 20260509023608 | 68 | 347 | 6.0 | 7.0 | 0.00 | 0.00 | 0.00 | 32 | 1004.3 |
| 20260509023104 | 68 | 28 | 6.0 | 7.0 | 0.00 | 0.00 | 0.00 | 32 | 1004.5 |
| 20260509022600 | 68 | 1 | 5.0 | 6.0 | 0.00 | 0.00 | 0.00 | 32 | 1004.4 |
| 20260509022059 | 69 | 36 | 7.0 | 8.0 | 0.00 | 0.00 | 0.00 | 31 | 1004.5 |
| 20260509021555 | 69 | 353 | 6.0 | 9.0 | 0.00 | 0.00 | 0.00 | 32 | 1004.3 |
| 20260509021053 | 69 | 32 | 7.0 | 8.0 | 0.00 | 0.00 | 0.00 | 31 | 1004.5 |
| 20260509020551 | 69 | 18 | 8.0 | 10.0 | 0.00 | 0.00 | 0.00 | 31 | 1004.3 |
| 20260509020047 | 70 | 359 | 8.0 | 10.0 | 0.00 | 0.00 | 0.00 | 31 | 1004.3 |
| 20260509015546 | 70 | 33 | 9.0 | 11.0 | 0.00 | 0.00 | 0.00 | 31 | 1004.2 |
| 20260509015043 | 70 | 353 | 5.0 | 8.0 | 0.00 | 0.00 | 0.00 | 31 | 1004.3 |
| 20260509014540 | 71 | 52 | 5.0 | 8.0 | 0.00 | 0.00 | 0.00 | 31 | 1004.2 |
| 20260509014036 | 71 | 354 | 9.0 | 13.0 | 0.00 | 0.00 | 0.00 | 30 | 1004.1 |
| 20260509013533 | 71 | 309 | 2.0 | 3.0 | 0.00 | 0.00 | 0.00 | 31 | 1004.2 |
| 20260509013028 | 71 | 353 | 8.0 | 14.0 | 0.00 | 0.00 | 0.00 | 30 | 1004.3 |
| 20260509012526 | 71 | 16 | 3.0 | 5.0 | 0.00 | 0.00 | 0.00 | 28 | 1004.2 |
| 20260509012022 | 72 | 2 | 4.0 | 6.0 | 0.00 | 0.00 | 0.00 | 27 | 1004.0 |
| 20260509011520 | 72 | 322 | 5.0 | 7.0 | 0.00 | 0.00 | 0.00 | 27 | 1004.2 |
| 20260509011017 | 72 | 15 | 3.0 | 7.0 | 0.00 | 0.00 | 0.00 | 27 | 1004.2 |
| 20260509010515 | 72 | 336 | 3.0 | 5.0 | 0.00 | 0.00 | 0.00 | 27 | 1004.2 |
| 20260509010012 | 72 | 72 | 1.0 | 2.0 | 0.00 | 0.00 | 0.00 | 28 | 1004.0 |
| 20260509005510 | 73 | 121 | 1.0 | 3.0 | 0.00 | 0.00 | 0.00 | 27 | 1003.9 |
| 20260509005009 | 73 | 147 | 2.0 | 3.0 | 0.00 | 0.00 | 0.00 | 28 | 1004.0 |
| 20260509004507 | 73 | 14 | 6.0 | 11.0 | 0.00 | 0.00 | 0.00 | 27 | 1004.0 |
| 20260509004004 | 73 | 256 | 2.0 | 6.0 | 0.00 | 0.00 | 0.00 | 27 | 1004.1 |
| 20260509003502 | 73 | 18 | 7.0 | 13.0 | 0.00 | 0.00 | 0.00 | 27 | 1004.1 |
| 20260509002958 | 73 | 40 | 7.0 | 14.0 | 0.00 | 0.00 | 0.00 | 27 | 1004.1 |
| 20260509002456 | 73 | 300 | 5.0 | 8.0 | 0.00 | 0.00 | 0.00 | 27 | 1004.1 |
| 20260509001953 | 73 | 117 | 8.0 | 15.0 | 0.00 | 0.00 | 0.00 | 26 | 1003.9 |
| 20260509001450 | 74 | 86 | 5.0 | 13.0 | 0.00 | 0.00 | 0.00 | 26 | 1003.9 |
| 20260509000946 | 73 | 84 | 12.0 | 16.0 | 0.00 | 0.00 | 0.00 | 26 | 1004.1 |
| 20260509000447 | 74 | 358 | 4.0 | 7.0 | 0.00 | 0.00 | 0.00 | 26 | 1004.1 |
| 20260508235940 | 74 | 307 | 9.0 | 14.0 | 0.00 | 0.00 | 0.00 | 26 | 1004.1 |
| 20260508235439 | 74 | 118 | 4.0 | 6.0 | 0.00 | 0.00 | 0.00 | 26 | 1004.2 |
| 20260508234935 | 74 | 19 | 13.0 | 18.0 | 0.00 | 0.00 | 0.00 | 26 | 1004.2 |
| 20260508234432 | 75 | 276 | 9.0 | 14.0 | 0.00 | 0.00 | 0.00 | 26 | 1003.7 |
| 20260508233929 | 75 | 3 | 8.0 | 17.0 | 0.00 | 0.00 | 0.00 | 26 | 1004.1 |
| 20260508233429 | 75 | 317 | 11.0 | 14.0 | 0.00 | 0.00 | 0.00 | 25 | 1004.1 |
| 20260508232925 | 75 | 315 | 6.0 | 9.0 | 0.00 | 0.00 | 0.00 | 26 | 1004.0 |
| 20260508232422 | 75 | 310 | 17.0 | 25.0 | 0.00 | 0.00 | 0.00 | 27 | 1003.9 |
| 20260508231919 | 75 | 75 | 3.0 | 5.0 | 0.00 | 0.00 | 0.00 | 27 | 1003.7 |
| 20260508231416 | 75 | 124 | 3.0 | 3.0 | 0.00 | 0.00 | 0.00 | 26 | 1004.2 |
| 20260508230913 | 76 | 302 | 10.0 | 18.0 | 0.00 | 0.00 | 0.00 | 26 | 1004.1 |
| 20260508230410 | 76 | 208 | 9.0 | 15.0 | 0.00 | 0.00 | 0.00 | 27 | 1003.9 |
| 20260508225907 | 75 | 311 | 13.0 | 18.0 | 0.00 | 0.00 | 0.00 | 27 | 1004.0 |
| 20260508225403 | 75 | 4 | 7.0 | 11.0 | 0.00 | 0.00 | 0.00 | 27 | 1004.0 |
| 20260508224901 | 75 | 276 | 13.0 | 23.0 | 0.00 | 0.00 | 0.00 | 28 | 1003.9 |
| 20260508224359 | 76 | 330 | 15.0 | 22.0 | 0.00 | 0.00 | 0.00 | 27 | 1003.9 |
| 20260508223856 | 77 | 334 | 11.0 | 15.0 | 0.00 | 0.00 | 0.00 | 27 | 1004.2 |
| 20260508223353 | 77 | 123 | 3.0 | 3.0 | 0.00 | 0.00 | 0.00 | 27 | 1003.9 |
| 20260508222851 | 76 | 87 | 10.0 | 16.0 | 0.00 | 0.00 | 0.00 | 27 | 1003.9 |
| 20260508222348 | 75 | 332 | 4.0 | 6.0 | 0.00 | 0.00 | 0.00 | 28 | 1003.9 |
| 20260508221844 | 76 | 293 | 14.0 | 15.0 | 0.00 | 0.00 | 0.00 | 26 | 1004.1 |
| 20260508221340 | 77 | 279 | 10.0 | 16.0 | 0.00 | 0.00 | 0.00 | 27 | 1003.5 |
| 20260508220836 | 77 | 330 | 7.0 | 9.0 | 0.00 | 0.00 | 0.00 | 27 | 1004.0 |
| 20260508220333 | 77 | 300 | 18.0 | 21.0 | 0.00 | 0.00 | 0.00 | 27 | 1004.1 |
| 20260508215829 | 77 | 231 | 8.0 | 11.0 | 0.00 | 0.00 | 0.00 | 27 | 1004.1 |
| 20260508215326 | 76 | 286 | 12.0 | 14.0 | 0.00 | 0.00 | 0.00 | 26 | 1004.2 |
| 20260508214823 | 76 | 282 | 21.0 | 25.0 | 0.00 | 0.00 | 0.00 | 27 | 1003.9 |
| 20260508214320 | 76 | 356 | 11.0 | 16.0 | 0.00 | 0.00 | 0.00 | 29 | 1004.1 |
| 20260508213817 | 77 | 299 | 16.0 | 20.0 | 0.00 | 0.00 | 0.00 | 29 | 1004.2 |
| 20260508213314 | 78 | 315 | 15.0 | 18.0 | 0.00 | 0.00 | 0.00 | 27 | 1004.1 |
| 20260508212810 | 78 | 300 | 12.0 | 16.0 | 0.00 | 0.00 | 0.00 | 28 | 1004.0 |
| 20260508212306 | 77 | 226 | 3.0 | 6.0 | 0.00 | 0.00 | 0.00 | 27 | 1004.4 |
| 20260508211802 | 77 | 340 | 9.0 | 11.0 | 0.00 | 0.00 | 0.00 | 28 | 1004.1 |
| 20260508211258 | 76 | 313 | 14.0 | 21.0 | 0.00 | 0.00 | 0.00 | 27 | 1004.4 |
| 20260508210756 | 77 | 301 | 15.0 | 17.0 | 0.00 | 0.00 | 0.00 | 28 | 1004.1 |
| 20260508210252 | 76 | 286 | 6.0 | 9.0 | 0.00 | 0.00 | 0.00 | 28 | 1004.5 |
| 20260508205749 | 77 | 289 | 13.0 | 17.0 | 0.00 | 0.00 | 0.00 | 27 | 1004.2 |
| 20260508205245 | 76 | 311 | 16.0 | 20.0 | 0.00 | 0.00 | 0.00 | 29 | 1004.2 |
| 20260508204742 | 75 | 295 | 8.0 | 11.0 | 0.00 | 0.00 | 0.00 | 32 | 1004.1 |
| 20260508204238 | 76 | 316 | 10.0 | 13.0 | 0.00 | 0.00 | 0.00 | 31 | 1004.3 |
| 20260508203734 | 77 | 310 | 11.0 | 13.0 | 0.00 | 0.00 | 0.00 | 32 | 1004.4 |
| 20260508203231 | 76 | 247 | 16.0 | 18.0 | 0.00 | 0.00 | 0.00 | 32 | 1004.5 |
| 20260508202727 | 76 | 270 | 20.0 | 27.0 | 0.00 | 0.00 | 0.00 | 32 | 1004.3 |
| 20260508202224 | 73 | 321 | 9.0 | 10.0 | 0.00 | 0.00 | 0.00 | 34 | 1004.3 |
| 20260508201721 | 74 | 278 | 13.0 | 15.0 | 0.00 | 0.00 | 0.00 | 34 | 1004.5 |
| 20260508201218 | 75 | 294 | 13.0 | 16.0 | 0.00 | 0.00 | 0.00 | 35 | 1004.7 |
| 20260508200714 | 75 | 304 | 15.0 | 16.0 | 0.00 | 0.00 | 0.00 | 34 | 1004.5 |
| 20260508200211 | 75 | 278 | 16.0 | 20.0 | 0.00 | 0.00 | 0.00 | 35 | 1004.2 |
| 20260508195707 | 74 | 275 | 15.0 | 17.0 | 0.00 | 0.00 | 0.00 | 35 | 1004.4 |
| 20260508195204 | 75 | 289 | 13.0 | 17.0 | 0.00 | 0.00 | 0.00 | 36 | 1004.7 |
| 20260508194700 | 75 | 237 | 15.0 | 18.0 | 0.00 | 0.00 | 0.00 | 37 | 1004.6 |
| 20260508194157 | 74 | 233 | 11.0 | 13.0 | 0.00 | 0.00 | 0.00 | 41 | 1004.8 |
| 20260508193654 | 74 | 251 | 8.0 | 9.0 | 0.00 | 0.00 | 0.00 | 39 | 1004.7 |
| 20260508193151 | 73 | 260 | 21.0 | 26.0 | 0.00 | 0.00 | 0.00 | 41 | 1004.6 |
| 20260508192648 | 73 | 282 | 5.0 | 8.0 | 0.00 | 0.00 | 0.00 | 41 | 1004.7 |
| 20260508192145 | 73 | 231 | 8.0 | 8.0 | 0.00 | 0.00 | 0.00 | 39 | 1005.2 |
| 20260508191642 | 72 | 250 | 5.0 | 6.0 | 0.00 | 0.00 | 0.00 | 39 | 1005.2 |
| 20260508191138 | 73 | 319 | 11.0 | 18.0 | 0.00 | 0.00 | 0.00 | 39 | 1005.2 |
| 20260508190636 | 72 | 258 | 4.0 | 5.0 | 0.00 | 0.00 | 0.00 | 42 | 1005.3 |
| 20260508190132 | 73 | 227 | 7.0 | 10.0 | 0.00 | 0.00 | 0.00 | 41 | 1005.4 |
| 20260508185629 | 72 | 243 | 11.0 | 13.0 | 0.00 | 0.00 | 0.00 | 42 | 1005.6 |
| 20260508185126 | 71 | 309 | 11.0 | 13.0 | 0.00 | 0.00 | 0.00 | 44 | 1005.7 |
| 20260508184624 | 71 | 237 | 5.0 | 7.0 | 0.00 | 0.00 | 0.00 | 48 | 1005.7 |
| 20260508184121 | 72 | 229 | 9.0 | 9.0 | 0.00 | 0.00 | 0.00 | 48 | 1005.7 |
| 20260508183617 | 71 | 243 | 8.0 | 9.0 | 0.00 | 0.00 | 0.00 | 50 | 1005.9 |
| 20260508183113 | 71 | 239 | 11.0 | 13.0 | 0.00 | 0.00 | 0.00 | 49 | 1005.9 |
| 20260508182609 | 70 | 288 | 9.0 | 10.0 | 0.00 | 0.00 | 0.00 | 52 | 1006.1 |
| 20260508182106 | 70 | 232 | 4.0 | 5.0 | 0.00 | 0.00 | 0.00 | 57 | 1006.5 |
| 20260508181601 | 70 | 183 | 5.0 | 6.0 | 0.00 | 0.00 | 0.00 | 57 | 1006.3 |
| 20260508181059 | 71 | 182 | 5.0 | 6.0 | 0.00 | 0.00 | 0.00 | 58 | 1006.4 |
| 20260508180555 | 69 | 234 | 6.0 | 7.0 | 0.00 | 0.00 | 0.00 | 59 | 1006.5 |
| 20260508180052 | 69 | 297 | 4.0 | 5.0 | 0.00 | 0.00 | 0.00 | 59 | 1006.6 |
| 20260508175548 | 69 | 246 | 5.0 | 6.0 | 0.00 | 0.00 | 0.00 | 60 | 1006.5 |
| 20260508175046 | 70 | 194 | 3.0 | 3.0 | 0.00 | 0.00 | 0.00 | 59 | 1006.6 |
| 20260508174543 | 69 | 316 | 0.0 | 0.0 | 0.00 | 0.00 | 0.00 | 60 | 1006.7 |
| 20260508174040 | 69 | 266 | 7.0 | 10.0 | 0.00 | 0.00 | 0.00 | 60 | 1006.7 |
| 20260508173537 | 70 | 333 | 1.0 | 1.0 | 0.00 | 0.00 | 0.00 | 60 | 1006.7 |
| 20260508173033 | 68 | 239 | 6.0 | 7.0 | 0.00 | 0.00 | 0.00 | 61 | 1006.8 |
| 20260508172530 | 68 | 334 | 5.0 | 7.0 | 0.00 | 0.00 | 0.00 | 60 | 1006.7 |
| 20260508172027 | 68 | 256 | 3.0 | 3.0 | 0.00 | 0.00 | 0.00 | 62 | 1006.9 |
| 20260508171523 | 67 | 313 | 3.0 | 5.0 | 0.00 | 0.00 | 0.00 | 63 | 1006.7 |
| 20260508171020 | 67 | 235 | 7.0 | 9.0 | 0.00 | 0.00 | 0.00 | 64 | 1007.0 |
| 20260508170517 | 67 | 229 | 5.0 | 6.0 | 0.00 | 0.00 | 0.00 | 64 | 1006.9 |
| 20260508170015 | 66 | 236 | 9.0 | 10.0 | 0.00 | 0.00 | 0.00 | 63 | 1007.1 |
| 20260508165512 | 66 | 221 | 7.0 | 8.0 | 0.00 | 0.00 | 0.00 | 65 | 1007.1 |
| 20260508165008 | 65 | 235 | 6.0 | 8.0 | 0.00 | 0.00 | 0.00 | 65 | 1007.5 |
| 20260508164505 | 64 | 247 | 8.0 | 9.0 | 0.00 | 0.00 | 0.00 | 67 | 1007.1 |
| 20260508164001 | 65 | 258 | 10.0 | 10.0 | 0.00 | 0.00 | 0.00 | 65 | 1007.1 |
| 20260508163459 | 65 | 310 | 6.0 | 7.0 | 0.00 | 0.00 | 0.00 | 66 | 1007.2 |
| 20260508162955 | 64 | 239 | 6.0 | 8.0 | 0.00 | 0.00 | 0.00 | 66 | 1007.2 |